Kirishima Maru No.5 — JD2506 — position and weather

sailwx.info

Track history (hours):
 
Tides and Currents Weather Stations Pressure Air Temp Water Temp Dewpoint Dewpoint Depression Visibility Wind Speed Wind Dir Waves Ship Positions

Kirishima Maru No.5

Last reported at 2014-Jul-20 11:33 UTC. Time now 2014-Jul-26 09:14 UTC.
Position N 35°25' E 140°44'.

Length 105 m; draft 5.4 m.

Type: Tanker. MMSI: 431000338.

Date/timePositionNaut miles runAvg speedWind from/ knotsBaromVisibWave heightAir tempDewpointWater temp
2014-Jul-20 11:33N 35°25' E 140°44'1515.5
2014-Jul-20 10:33N 35°13' E 140°33'1814.7
2014-Jul-20 09:18N 35°00' E 140°17'1115.2
2014-Jul-20 08:33N 34°55' E 140°04'1513.7
2014-Jul-20 07:29N 34°51' E 139°47'1414.9
2014-Jul-20 06:34N 35°05' E 139°43'1313.4
2014-Jul-20 05:33N 35°18' E 139°44'5 4.6
2014-Jul-20 04:31N 35°23' E 139°44'0 0.0
2014-Jul-20 03:31N 35°23' E 139°44'0 0.0
2014-Jul-20 02:31N 35°23' E 139°44'0 0.0
2014-Jul-20 01:31N 35°23' E 139°44'0 0.0
2014-Jul-20 00:31N 35°23' E 139°44'0 0.0
2014-Jul-19 23:31N 35°23' E 139°44'0 0.0
2014-Jul-19 22:31N 35°23' E 139°44'0 0.0
2014-Jul-19 21:31N 35°23' E 139°44'0 0.0
2014-Jul-19 20:31N 35°23' E 139°44'0 0.0
2014-Jul-19 19:31N 35°23' E 139°44'0 0.0
2014-Jul-19 18:31N 35°23' E 139°44'0 0.0
2014-Jul-19 17:31N 35°23' E 139°44'0 0.0
2014-Jul-19 16:31N 35°23' E 139°44'0 0.0
2014-Jul-19 15:31N 35°23' E 139°44'0 0.0
2014-Jul-19 14:31N 35°23' E 139°44'0 0.0
2014-Jul-19 13:31N 35°23' E 139°44'0 0.0
2014-Jul-19 12:31N 35°23' E 139°44'0 0.1
2014-Jul-19 11:31N 35°23' E 139°44'0 0.0
2014-Jul-19 10:31N 35°23' E 139°44'0 0.1
2014-Jul-19 09:33N 35°23' E 139°44'8 7.6
2014-Jul-19 08:32N 35°31' E 139°46'0 0.0
2014-Jul-19 07:32N 35°31' E 139°46'0 0.0
2014-Jul-19 06:32N 35°31' E 139°46'0 0.0
2014-Jul-19 05:32N 35°31' E 139°46'0 0.0
2014-Jul-19 04:32N 35°31' E 139°46'0 0.0
2014-Jul-19 03:33N 35°31' E 139°46'0 0.4
2014-Jul-19 02:34N 35°31' E 139°46'4 3.8
2014-Jul-19 01:33N 35°27' E 139°44'3 2.9
2014-Jul-19 00:33N 35°24' E 139°46'1110.7
2014-Jul-18 23:33N 35°14' E 139°47'1413.7
2014-Jul-18 22:33N 35°00' E 139°43'1211.9
2014-Jul-18 21:31N 34°50' E 139°51'1313.6
2014-Jul-18 20:33N 34°55' E 140°06'1614.6
2014-Jul-18 19:26N 35°03' E 140°23'1214.1
2014-Jul-18 18:33N 35°13' E 140°32'1313.0
2014-Jul-18 17:33N 35°23' E 140°42'1714.6
2014-Jul-18 16:22N 35°37' E 140°55'1414.2
2014-Jul-18 15:21N 35°51' E 140°59'1214.4
2014-Jul-18 14:29N 36°03' E 140°60'40 1.0
2014-Jul-16 21:29N 35°25' E 140°44'1414.7
2014-Jul-16 20:33N 35°14' E 140°34'1915.7
2014-Jul-16 19:21N 35°01' E 140°18'1316.3
2014-Jul-16 18:33N 34°54' E 140°04'1615.4
2014-Jul-16 17:31N 34°47' E 139°47'24213.2
2014-Jul-15 23:13N 34°03' E 134°59'1014.7
2014-Jul-15 22:33N 34°13' E 134°59'1414.5
2014-Jul-15 21:33N 34°27' E 135°01'10 9.4
2014-Jul-15 20:32N 34°35' E 134°55'4 0.1
2014-Jul-14 01:33N 34°38' E 134°59'1212.1
2014-Jul-14 00:34N 34°26' E 135°04'1514.5
2014-Jul-13 23:33N 34°12' E 134°59'23211.0
2014-Jul-13 02:31N 34°43' E 139°37'1813.1
2014-Jul-13 01:10N 34°51' E 139°57'813.0
2014-Jul-13 00:33N 34°55' E 140°05'1312.8
2014-Jul-12 23:33N 35°01' E 140°19'1312.1
2014-Jul-12 22:30N 35°10' E 140°30'1313.3
2014-Jul-12 21:33N 35°20' E 140°40'1514.9
2014-Jul-12 20:33N 35°32' E 140°50'1414.4
2014-Jul-12 19:33N 35°45' E 140°58'1514.9
2014-Jul-12 18:33N 35°59' E 140°59'1514.5
2014-Jul-12 17:33N 36°14' E 141°01'1414.5
2014-Jul-12 16:33N 36°28' E 141°02'1414.4
2014-Jul-12 15:33N 36°43' E 141°03'1614.5
2014-Jul-12 14:29N 36°58' E 141°05'64 2.7
2014-Jul-11 14:29N 35°55' E 140°59'1415.4
2014-Jul-11 13:33N 35°40' E 140°57'3315.3
2014-Jul-11 11:24N 35°14' E 140°33'1717.2
2014-Jul-11 10:23N 35°01' E 140°19'1417.1
2014-Jul-11 09:33N 34°55' E 140°04'1514.5
2014-Jul-11 08:32N 34°54' E 139°46'1313.5
2014-Jul-11 07:33N 35°07' E 139°45'1212.4
2014-Jul-11 06:33N 35°19' E 139°43'1211.9
2014-Jul-11 05:33N 35°29' E 139°51'4 3.7
2014-Jul-11 04:30N 35°33' E 139°53'0 0.1
2014-Jul-11 03:33N 35°33' E 139°53'0 0.0
2014-Jul-11 02:24N 35°33' E 139°53'0 0.1
2014-Jul-11 01:33N 35°33' E 139°53'0 0.0
2014-Jul-11 00:33N 35°33' E 139°53'0 0.0
2014-Jul-10 23:33N 35°33' E 139°53'0 0.0
2014-Jul-10 22:31N 35°33' E 139°53'0 0.0
2014-Jul-10 21:33N 35°33' E 139°53'0 0.1
2014-Jul-10 20:29N 35°33' E 139°53'0 0.1
2014-Jul-10 19:32N 35°33' E 139°53'0 0.1
2014-Jul-10 18:26N 35°33' E 139°53'0 0.0
2014-Jul-10 17:30N 35°33' E 139°53'0 0.0
2014-Jul-10 16:28N 35°33' E 139°53'0 0.0
2014-Jul-10 15:30N 35°33' E 139°53'0 0.0
2014-Jul-10 14:31N 35°33' E 139°53'0 0.0
2014-Jul-10 13:33N 35°33' E 139°53'0 0.0
2014-Jul-10 12:26N 35°33' E 139°53'0 0.1
2014-Jul-10 11:33N 35°33' E 139°53'  
Track history (hours):
 
Tides and Currents Weather Stations Pressure Air Temp Water Temp Dewpoint Dewpoint Depression Visibility Wind Speed Wind Dir Waves Ship Positions

Kirishima Maru No.5

Last reported at 2014-Jul-20 11:33 UTC. Time now 2014-Jul-26 09:14 UTC.
Position N 35°25' E 140°44'.

Length 105 m; draft 5.4 m.

Type: Tanker. MMSI: 431000338.

Date/timePositionNaut miles runAvg speedWind from/ knotsBaromVisibWave heightAir tempDewpointWater temp
2014-Jul-20 11:33N 35°25' E 140°44'1515.5
2014-Jul-20 10:33N 35°13' E 140°33'1814.7
2014-Jul-20 09:18N 35°00' E 140°17'1115.2
2014-Jul-20 08:33N 34°55' E 140°04'1513.7
2014-Jul-20 07:29N 34°51' E 139°47'1414.9
2014-Jul-20 06:34N 35°05' E 139°43'1313.4
2014-Jul-20 05:33N 35°18' E 139°44'5 4.6
2014-Jul-20 04:31N 35°23' E 139°44'0 0.0
2014-Jul-20 03:31N 35°23' E 139°44'0 0.0
2014-Jul-20 02:31N 35°23' E 139°44'0 0.0
2014-Jul-20 01:31N 35°23' E 139°44'0 0.0
2014-Jul-20 00:31N 35°23' E 139°44'0 0.0
2014-Jul-19 23:31N 35°23' E 139°44'0 0.0
2014-Jul-19 22:31N 35°23' E 139°44'0 0.0
2014-Jul-19 21:31N 35°23' E 139°44'0 0.0
2014-Jul-19 20:31N 35°23' E 139°44'0 0.0
2014-Jul-19 19:31N 35°23' E 139°44'0 0.0
2014-Jul-19 18:31N 35°23' E 139°44'0 0.0
2014-Jul-19 17:31N 35°23' E 139°44'0 0.0
2014-Jul-19 16:31N 35°23' E 139°44'0 0.0
2014-Jul-19 15:31N 35°23' E 139°44'0 0.0
2014-Jul-19 14:31N 35°23' E 139°44'0 0.0
2014-Jul-19 13:31N 35°23' E 139°44'0 0.0
2014-Jul-19 12:31N 35°23' E 139°44'0 0.1
2014-Jul-19 11:31N 35°23' E 139°44'0 0.0
2014-Jul-19 10:31N 35°23' E 139°44'0 0.1
2014-Jul-19 09:33N 35°23' E 139°44'8 7.6
2014-Jul-19 08:32N 35°31' E 139°46'0 0.0
2014-Jul-19 07:32N 35°31' E 139°46'0 0.0
2014-Jul-19 06:32N 35°31' E 139°46'0 0.0
2014-Jul-19 05:32N 35°31' E 139°46'0 0.0
2014-Jul-19 04:32N 35°31' E 139°46'0 0.0
2014-Jul-19 03:33N 35°31' E 139°46'0 0.4
2014-Jul-19 02:34N 35°31' E 139°46'4 3.8
2014-Jul-19 01:33N 35°27' E 139°44'3 2.9
2014-Jul-19 00:33N 35°24' E 139°46'1110.7
2014-Jul-18 23:33N 35°14' E 139°47'1413.7
2014-Jul-18 22:33N 35°00' E 139°43'1211.9
2014-Jul-18 21:31N 34°50' E 139°51'1313.6
2014-Jul-18 20:33N 34°55' E 140°06'1614.6
2014-Jul-18 19:26N 35°03' E 140°23'1214.1
2014-Jul-18 18:33N 35°13' E 140°32'1313.0
2014-Jul-18 17:33N 35°23' E 140°42'1714.6
2014-Jul-18 16:22N 35°37' E 140°55'1414.2
2014-Jul-18 15:21N 35°51' E 140°59'1214.4
2014-Jul-18 14:29N 36°03' E 140°60'40 1.0
2014-Jul-16 21:29N 35°25' E 140°44'1414.7
2014-Jul-16 20:33N 35°14' E 140°34'1915.7
2014-Jul-16 19:21N 35°01' E 140°18'1316.3
2014-Jul-16 18:33N 34°54' E 140°04'1615.4
2014-Jul-16 17:31N 34°47' E 139°47'24213.2
2014-Jul-15 23:13N 34°03' E 134°59'1014.7
2014-Jul-15 22:33N 34°13' E 134°59'1414.5
2014-Jul-15 21:33N 34°27' E 135°01'10 9.4
2014-Jul-15 20:32N 34°35' E 134°55'4 0.1
2014-Jul-14 01:33N 34°38' E 134°59'1212.1
2014-Jul-14 00:34N 34°26' E 135°04'1514.5
2014-Jul-13 23:33N 34°12' E 134°59'23211.0
2014-Jul-13 02:31N 34°43' E 139°37'1813.1
2014-Jul-13 01:10N 34°51' E 139°57'813.0
2014-Jul-13 00:33N 34°55' E 140°05'1312.8
2014-Jul-12 23:33N 35°01' E 140°19'1312.1
2014-Jul-12 22:30N 35°10' E 140°30'1313.3
2014-Jul-12 21:33N 35°20' E 140°40'1514.9
2014-Jul-12 20:33N 35°32' E 140°50'1414.4
2014-Jul-12 19:33N 35°45' E 140°58'1514.9
2014-Jul-12 18:33N 35°59' E 140°59'1514.5
2014-Jul-12 17:33N 36°14' E 141°01'1414.5
2014-Jul-12 16:33N 36°28' E 141°02'1414.4
2014-Jul-12 15:33N 36°43' E 141°03'1614.5
2014-Jul-12 14:29N 36°58' E 141°05'64 2.7
2014-Jul-11 14:29N 35°55' E 140°59'1415.4
2014-Jul-11 13:33N 35°40' E 140°57'3315.3
2014-Jul-11 11:24N 35°14' E 140°33'1717.2
2014-Jul-11 10:23N 35°01' E 140°19'1417.1
2014-Jul-11 09:33N 34°55' E 140°04'1514.5
2014-Jul-11 08:32N 34°54' E 139°46'1313.5
2014-Jul-11 07:33N 35°07' E 139°45'1212.4
2014-Jul-11 06:33N 35°19' E 139°43'1211.9
2014-Jul-11 05:33N 35°29' E 139°51'4 3.7
2014-Jul-11 04:30N 35°33' E 139°53'0 0.1
2014-Jul-11 03:33N 35°33' E 139°53'0 0.0
2014-Jul-11 02:24N 35°33' E 139°53'0 0.1
2014-Jul-11 01:33N 35°33' E 139°53'0 0.0
2014-Jul-11 00:33N 35°33' E 139°53'0 0.0
2014-Jul-10 23:33N 35°33' E 139°53'0 0.0
2014-Jul-10 22:31N 35°33' E 139°53'0 0.0
2014-Jul-10 21:33N 35°33' E 139°53'0 0.1
2014-Jul-10 20:29N 35°33' E 139°53'0 0.1
2014-Jul-10 19:32N 35°33' E 139°53'0 0.1
2014-Jul-10 18:26N 35°33' E 139°53'0 0.0
2014-Jul-10 17:30N 35°33' E 139°53'0 0.0
2014-Jul-10 16:28N 35°33' E 139°53'0 0.0
2014-Jul-10 15:30N 35°33' E 139°53'0 0.0
2014-Jul-10 14:31N 35°33' E 139°53'0 0.0
2014-Jul-10 13:33N 35°33' E 139°53'0 0.0
2014-Jul-10 12:26N 35°33' E 139°53'0 0.1
2014-Jul-10 11:33N 35°33' E 139°53'  

Dump ship's entire track history